Terminal Aerodrome Forecast
Issued by NWS

Home | Current Version | Previous Version | Text Only | Print | Product List | Glossary On
Versions: 1 2 3 4 5 6 7 8 9 10 11 12 13 14
000
FTUS44 KLZK 311120
TAFADF
TAF
KADF 311120Z 3112/0112 VRB04KT P6SM VCFG BKN250
      TEMPO 3112/3114 4SM BR
     FM311400 05004KT P6SM SCT250
     FM311800 05007KT P6SM VCTS SCT040CB SCT250
     FM010000 01006KT P6SM VCSH BKN050 BKN120
      TEMPO 0110/0112 5SM BR=

USA.gov is the U.S. government's official web portal to all federal, state and local government web resources and services.